sensor_id;sensor_type;location;lat;lon;timestamp;temperature;humidity
6102;DHT22;3081;50.584;7.032;2023-02-26T00:00:51;0.50;99.90
6102;DHT22;3081;50.584;7.032;2023-02-26T00:03:17;0.50;99.90
6102;DHT22;3081;50.584;7.032;2023-02-26T00:05:44;0.50;99.90
6102;DHT22;3081;50.584;7.032;2023-02-26T00:08:11;0.40;99.90
6102;DHT22;3081;50.584;7.032;2023-02-26T00:10:38;0.50;99.90
6102;DHT22;3081;50.584;7.032;2023-02-26T00:13:06;0.40;99.90
6102;DHT22;3081;50.584;7.032;2023-02-26T00:15:34;0.30;99.90
6102;DHT22;3081;50.584;7.032;2023-02-26T00:18:05;0.30;99.90
6102;DHT22;3081;50.584;7.032;2023-02-26T00:20:34;0.30;99.90
6102;DHT22;3081;50.584;7.032;2023-02-26T00:23:02;0.20;99.90
6102;DHT22;3081;50.584;7.032;2023-02-26T00:25:29;0.10;99.90
6102;DHT22;3081;50.584;7.032;2023-02-26T00:27:56;0.10;99.90
6102;DHT22;3081;50.584;7.032;2023-02-26T00:30:24;0.00;99.90
6102;DHT22;3081;50.584;7.032;2023-02-26T00:32:52;0.00;99.90
6102;DHT22;3081;50.584;7.032;2023-02-26T00:35:20;-0.10;99.90
6102;DHT22;3081;50.584;7.032;2023-02-26T00:37:55;-0.10;99.90
6102;DHT22;3081;50.584;7.032;2023-02-26T00:40:33;-0.10;99.90
6102;DHT22;3081;50.584;7.032;2023-02-26T00:43:01;-0.10;99.90
6102;DHT22;3081;50.584;7.032;2023-02-26T00:45:29;-0.10;99.90
6102;DHT22;3081;50.584;7.032;2023-02-26T00:48:12;-0.10;99.90
6102;DHT22;3081;50.584;7.032;2023-02-26T00:50:47;-0.20;99.90
6102;DHT22;3081;50.584;7.032;2023-02-26T00:53:20;-0.10;99.90
6102;DHT22;3081;50.584;7.032;2023-02-26T00:55:48;-0.10;99.90
6102;DHT22;3081;50.584;7.032;2023-02-26T00:58:15;-0.10;99.90
6102;DHT22;3081;50.584;7.032;2023-02-26T01:00:41;-0.10;99.90
6102;DHT22;3081;50.584;7.032;2023-02-26T01:03:10;0.00;99.90
6102;DHT22;3081;50.584;7.032;2023-02-26T01:05:38;0.10;99.90
6102;DHT22;3081;50.584;7.032;2023-02-26T01:08:11;0.20;99.90
6102;DHT22;3081;50.584;7.032;2023-02-26T01:10:40;0.20;99.90
6102;DHT22;3081;50.584;7.032;2023-02-26T01:13:08;0.20;99.90
6102;DHT22;3081;50.584;7.032;2023-02-26T01:15:35;0.20;99.90
6102;DHT22;3081;50.584;7.032;2023-02-26T01:18:06;0.20;99.90
6102;DHT22;3081;50.584;7.032;2023-02-26T01:20:41;0.20;99.90
6102;DHT22;3081;50.584;7.032;2023-02-26T01:23:14;0.20;99.90
6102;DHT22;3081;50.584;7.032;2023-02-26T01:25:44;0.30;99.90
6102;DHT22;3081;50.584;7.032;2023-02-26T01:28:14;0.30;99.90
6102;DHT22;3081;50.584;7.032;2023-02-26T01:30:42;0.30;99.90
6102;DHT22;3081;50.584;7.032;2023-02-26T01:33:16;0.30;99.90
6102;DHT22;3081;50.584;7.032;2023-02-26T01:35:50;0.30;99.90
6102;DHT22;3081;50.584;7.032;2023-02-26T01:38:23;0.30;99.90
6102;DHT22;3081;50.584;7.032;2023-02-26T01:41:12;0.30;99.90
6102;DHT22;3081;50.584;7.032;2023-02-26T01:43:48;0.30;99.90
6102;DHT22;3081;50.584;7.032;2023-02-26T01:46:21;0.30;99.90
6102;DHT22;3081;50.584;7.032;2023-02-26T01:48:53;0.30;99.90
6102;DHT22;3081;50.584;7.032;2023-02-26T01:51:45;0.30;99.90
6102;DHT22;3081;50.584;7.032;2023-02-26T01:54:13;0.20;99.90
6102;DHT22;3081;50.584;7.032;2023-02-26T01:56:40;0.20;99.90
6102;DHT22;3081;50.584;7.032;2023-02-26T01:59:09;0.20;99.90
6102;DHT22;3081;50.584;7.032;2023-02-26T02:01:38;0.20;99.90
6102;DHT22;3081;50.584;7.032;2023-02-26T02:04:09;0.20;99.90
6102;DHT22;3081;50.584;7.032;2023-02-26T02:06:37;0.20;99.90
6102;DHT22;3081;50.584;7.032;2023-02-26T02:09:07;0.20;99.90
6102;DHT22;3081;50.584;7.032;2023-02-26T02:11:34;0.20;99.90
6102;DHT22;3081;50.584;7.032;2023-02-26T02:14:11;0.20;99.90
6102;DHT22;3081;50.584;7.032;2023-02-26T02:16:47;0.20;99.90
6102;DHT22;3081;50.584;7.032;2023-02-26T02:19:38;0.20;99.90
6102;DHT22;3081;50.584;7.032;2023-02-26T02:22:24;0.10;99.90
6102;DHT22;3081;50.584;7.032;2023-02-26T02:25:07;0.10;99.90
6102;DHT22;3081;50.584;7.032;2023-02-26T02:27:45;0.10;99.90
6102;DHT22;3081;50.584;7.032;2023-02-26T02:30:25;0.10;99.90
6102;DHT22;3081;50.584;7.032;2023-02-26T02:33:03;0.00;99.90
6102;DHT22;3081;50.584;7.032;2023-02-26T02:35:35;0.00;99.90
6102;DHT22;3081;50.584;7.032;2023-02-26T02:38:06;0.00;99.90
6102;DHT22;3081;50.584;7.032;2023-02-26T02:40:39;-0.10;99.90
6102;DHT22;3081;50.584;7.032;2023-02-26T02:43:09;-0.10;99.90
6102;DHT22;3081;50.584;7.032;2023-02-26T02:45:42;-0.10;99.90
6102;DHT22;3081;50.584;7.032;2023-02-26T02:48:15;-0.10;99.90
6102;DHT22;3081;50.584;7.032;2023-02-26T02:50:46;-0.20;99.90
6102;DHT22;3081;50.584;7.032;2023-02-26T02:53:18;-0.20;99.90
6102;DHT22;3081;50.584;7.032;2023-02-26T02:55:51;-0.20;99.90
6102;DHT22;3081;50.584;7.032;2023-02-26T02:58:22;-0.30;99.90
6102;DHT22;3081;50.584;7.032;2023-02-26T03:00:53;-0.30;99.90
6102;DHT22;3081;50.584;7.032;2023-02-26T03:03:27;-0.30;99.90
6102;DHT22;3081;50.584;7.032;2023-02-26T03:05:56;-0.30;99.90
6102;DHT22;3081;50.584;7.032;2023-02-26T03:08:25;-0.40;99.90
6102;DHT22;3081;50.584;7.032;2023-02-26T03:10:53;-0.30;99.90
6102;DHT22;3081;50.584;7.032;2023-02-26T03:13:22;-0.40;99.90
6102;DHT22;3081;50.584;7.032;2023-02-26T03:15:59;-0.50;99.90
6102;DHT22;3081;50.584;7.032;2023-02-26T03:18:38;-0.50;99.90
6102;DHT22;3081;50.584;7.032;2023-02-26T03:21:12;-0.50;99.90
6102;DHT22;3081;50.584;7.032;2023-02-26T03:23:48;-0.60;99.90
6102;DHT22;3081;50.584;7.032;2023-02-26T03:26:20;-0.50;99.90
6102;DHT22;3081;50.584;7.032;2023-02-26T03:28:52;-0.60;99.90
6102;DHT22;3081;50.584;7.032;2023-02-26T03:31:25;-0.60;99.90
6102;DHT22;3081;50.584;7.032;2023-02-26T03:33:59;-0.60;99.90
6102;DHT22;3081;50.584;7.032;2023-02-26T03:36:31;-0.60;99.90
6102;DHT22;3081;50.584;7.032;2023-02-26T03:39:03;-0.60;99.90
6102;DHT22;3081;50.584;7.032;2023-02-26T03:41:35;-0.60;99.90
6102;DHT22;3081;50.584;7.032;2023-02-26T03:44:06;-0.60;99.90
6102;DHT22;3081;50.584;7.032;2023-02-26T03:46:38;-0.60;99.90
6102;DHT22;3081;50.584;7.032;2023-02-26T03:49:25;-0.60;99.90
6102;DHT22;3081;50.584;7.032;2023-02-26T03:51:53;-0.70;99.90
6102;DHT22;3081;50.584;7.032;2023-02-26T03:54:22;-0.70;99.90
6102;DHT22;3081;50.584;7.032;2023-02-26T03:56:51;-0.70;99.90
6102;DHT22;3081;50.584;7.032;2023-02-26T03:59:18;-0.70;99.90
6102;DHT22;3081;50.584;7.032;2023-02-26T04:01:52;-0.70;99.90
6102;DHT22;3081;50.584;7.032;2023-02-26T04:04:25;-0.70;99.90
6102;DHT22;3081;50.584;7.032;2023-02-26T04:06:53;-0.80;99.90
6102;DHT22;3081;50.584;7.032;2023-02-26T04:09:22;-0.80;99.90
6102;DHT22;3081;50.584;7.032;2023-02-26T04:11:50;-0.80;99.90
6102;DHT22;3081;50.584;7.032;2023-02-26T04:14:18;-0.80;99.90
6102;DHT22;3081;50.584;7.032;2023-02-26T04:16:45;-0.80;99.90
6102;DHT22;3081;50.584;7.032;2023-02-26T04:19:12;-0.70;99.90
6102;DHT22;3081;50.584;7.032;2023-02-26T04:21:40;-0.80;99.90
6102;DHT22;3081;50.584;7.032;2023-02-26T04:24:08;-0.80;99.90
6102;DHT22;3081;50.584;7.032;2023-02-26T04:26:34;-0.80;99.90
6102;DHT22;3081;50.584;7.032;2023-02-26T04:29:02;-0.80;99.90
6102;DHT22;3081;50.584;7.032;2023-02-26T04:31:29;-0.80;99.90
6102;DHT22;3081;50.584;7.032;2023-02-26T04:33:56;-0.80;99.90
6102;DHT22;3081;50.584;7.032;2023-02-26T04:36:23;-0.80;99.90
6102;DHT22;3081;50.584;7.032;2023-02-26T04:38:51;-0.90;99.90
6102;DHT22;3081;50.584;7.032;2023-02-26T04:41:18;-0.90;99.90
6102;DHT22;3081;50.584;7.032;2023-02-26T04:43:45;-0.80;99.90
6102;DHT22;3081;50.584;7.032;2023-02-26T04:46:12;-0.90;99.90
6102;DHT22;3081;50.584;7.032;2023-02-26T04:48:39;-0.90;99.90
6102;DHT22;3081;50.584;7.032;2023-02-26T04:51:06;-0.90;99.90
6102;DHT22;3081;50.584;7.032;2023-02-26T04:53:33;-0.80;99.90
6102;DHT22;3081;50.584;7.032;2023-02-26T04:56:01;-0.90;99.90
6102;DHT22;3081;50.584;7.032;2023-02-26T04:58:28;-0.80;99.90
6102;DHT22;3081;50.584;7.032;2023-02-26T05:00:56;-0.80;99.90
6102;DHT22;3081;50.584;7.032;2023-02-26T05:03:23;-0.80;99.90
6102;DHT22;3081;50.584;7.032;2023-02-26T05:05:50;-0.80;99.90
6102;DHT22;3081;50.584;7.032;2023-02-26T05:08:17;-0.80;99.90
6102;DHT22;3081;50.584;7.032;2023-02-26T05:10:44;-0.80;99.90
6102;DHT22;3081;50.584;7.032;2023-02-26T05:13:13;-0.90;99.90
6102;DHT22;3081;50.584;7.032;2023-02-26T05:15:40;-0.90;99.90
6102;DHT22;3081;50.584;7.032;2023-02-26T05:18:06;-0.90;99.90
6102;DHT22;3081;50.584;7.032;2023-02-26T05:20:33;-1.00;99.90
6102;DHT22;3081;50.584;7.032;2023-02-26T05:23:00;-1.10;99.90
6102;DHT22;3081;50.584;7.032;2023-02-26T05:25:27;-1.10;99.90
6102;DHT22;3081;50.584;7.032;2023-02-26T05:27:54;-1.20;99.90
6102;DHT22;3081;50.584;7.032;2023-02-26T05:30:23;-1.20;99.90
6102;DHT22;3081;50.584;7.032;2023-02-26T05:32:50;-1.20;99.90
6102;DHT22;3081;50.584;7.032;2023-02-26T05:35:17;-1.20;99.90
6102;DHT22;3081;50.584;7.032;2023-02-26T05:37:44;-1.20;99.90
6102;DHT22;3081;50.584;7.032;2023-02-26T05:40:11;-1.30;99.90
6102;DHT22;3081;50.584;7.032;2023-02-26T05:42:39;-1.30;99.90
6102;DHT22;3081;50.584;7.032;2023-02-26T05:45:06;-1.20;99.90
6102;DHT22;3081;50.584;7.032;2023-02-26T05:47:35;-1.20;99.90
6102;DHT22;3081;50.584;7.032;2023-02-26T05:50:04;-1.20;99.90
6102;DHT22;3081;50.584;7.032;2023-02-26T05:52:31;-1.20;99.90
6102;DHT22;3081;50.584;7.032;2023-02-26T05:54:58;-1.20;99.90
6102;DHT22;3081;50.584;7.032;2023-02-26T05:57:25;-1.10;99.90
6102;DHT22;3081;50.584;7.032;2023-02-26T05:59:53;-1.10;99.90
6102;DHT22;3081;50.584;7.032;2023-02-26T06:02:19;-1.10;99.90
6102;DHT22;3081;50.584;7.032;2023-02-26T06:04:48;-1.00;99.90
6102;DHT22;3081;50.584;7.032;2023-02-26T06:07:15;-1.00;99.90
6102;DHT22;3081;50.584;7.032;2023-02-26T06:09:42;-1.00;99.90
6102;DHT22;3081;50.584;7.032;2023-02-26T06:12:09;-1.00;99.90
6102;DHT22;3081;50.584;7.032;2023-02-26T06:14:36;-1.00;99.90
6102;DHT22;3081;50.584;7.032;2023-02-26T06:17:03;-1.00;99.90
6102;DHT22;3081;50.584;7.032;2023-02-26T06:19:31;-1.00;99.90
6102;DHT22;3081;50.584;7.032;2023-02-26T06:21:59;-1.00;99.90
6102;DHT22;3081;50.584;7.032;2023-02-26T06:24:26;-1.10;99.90
6102;DHT22;3081;50.584;7.032;2023-02-26T06:26:53;-1.10;99.90
6102;DHT22;3081;50.584;7.032;2023-02-26T06:29:20;-1.10;99.90
6102;DHT22;3081;50.584;7.032;2023-02-26T06:31:48;-1.20;99.90
6102;DHT22;3081;50.584;7.032;2023-02-26T06:34:15;-1.20;99.90
6102;DHT22;3081;50.584;7.032;2023-02-26T06:36:42;-1.10;99.90
6102;DHT22;3081;50.584;7.032;2023-02-26T06:39:10;-1.00;99.90
6102;DHT22;3081;50.584;7.032;2023-02-26T06:41:38;-1.00;99.90
6102;DHT22;3081;50.584;7.032;2023-02-26T06:44:05;-0.90;99.90
6102;DHT22;3081;50.584;7.032;2023-02-26T06:46:32;-0.90;99.90
6102;DHT22;3081;50.584;7.032;2023-02-26T06:48:59;-0.80;99.90
6102;DHT22;3081;50.584;7.032;2023-02-26T06:51:26;-0.80;99.90
6102;DHT22;3081;50.584;7.032;2023-02-26T06:53:53;-0.70;99.90
6102;DHT22;3081;50.584;7.032;2023-02-26T06:56:22;-0.70;99.90
6102;DHT22;3081;50.584;7.032;2023-02-26T06:58:49;-0.70;99.90
6102;DHT22;3081;50.584;7.032;2023-02-26T07:01:16;-0.60;99.90
6102;DHT22;3081;50.584;7.032;2023-02-26T07:03:43;-0.60;99.90
6102;DHT22;3081;50.584;7.032;2023-02-26T07:06:11;-0.60;99.90
6102;DHT22;3081;50.584;7.032;2023-02-26T07:08:38;-0.60;99.90
6102;DHT22;3081;50.584;7.032;2023-02-26T07:11:05;-0.60;99.90
6102;DHT22;3081;50.584;7.032;2023-02-26T07:13:35;-0.50;99.90
6102;DHT22;3081;50.584;7.032;2023-02-26T07:16:02;-0.40;99.90
6102;DHT22;3081;50.584;7.032;2023-02-26T07:18:31;-0.40;99.90
6102;DHT22;3081;50.584;7.032;2023-02-26T07:20:58;-0.20;99.90
6102;DHT22;3081;50.584;7.032;2023-02-26T07:23:25;-0.10;99.90
6102;DHT22;3081;50.584;7.032;2023-02-26T07:25:52;0.00;99.90
6102;DHT22;3081;50.584;7.032;2023-02-26T07:28:19;0.10;99.90
6102;DHT22;3081;50.584;7.032;2023-02-26T07:30:47;0.30;99.90
6102;DHT22;3081;50.584;7.032;2023-02-26T07:33:14;0.40;99.90
6102;DHT22;3081;50.584;7.032;2023-02-26T07:35:41;0.50;99.90
6102;DHT22;3081;50.584;7.032;2023-02-26T07:38:08;0.70;99.90
6102;DHT22;3081;50.584;7.032;2023-02-26T07:40:35;0.80;99.90
6102;DHT22;3081;50.584;7.032;2023-02-26T07:43:02;1.00;99.90
6102;DHT22;3081;50.584;7.032;2023-02-26T07:45:29;1.10;99.90
6102;DHT22;3081;50.584;7.032;2023-02-26T07:47:57;1.10;99.90
6102;DHT22;3081;50.584;7.032;2023-02-26T07:50:24;1.30;99.90
6102;DHT22;3081;50.584;7.032;2023-02-26T07:52:52;1.40;99.90
6102;DHT22;3081;50.584;7.032;2023-02-26T07:55:19;1.60;99.90
6102;DHT22;3081;50.584;7.032;2023-02-26T07:57:46;1.80;99.90
6102;DHT22;3081;50.584;7.032;2023-02-26T08:00:15;1.90;99.90
6102;DHT22;3081;50.584;7.032;2023-02-26T08:02:43;1.90;99.90
6102;DHT22;3081;50.584;7.032;2023-02-26T08:05:11;2.00;99.90
6102;DHT22;3081;50.584;7.032;2023-02-26T08:07:38;2.20;99.90
6102;DHT22;3081;50.584;7.032;2023-02-26T08:10:05;2.40;99.90
6102;DHT22;3081;50.584;7.032;2023-02-26T08:12:32;3.00;99.90
6102;DHT22;3081;50.584;7.032;2023-02-26T08:14:59;3.80;99.90
6102;DHT22;3081;50.584;7.032;2023-02-26T08:17:26;4.70;99.90
6102;DHT22;3081;50.584;7.032;2023-02-26T08:19:53;5.50;99.90
6102;DHT22;3081;50.584;7.032;2023-02-26T08:22:21;6.20;99.90
6102;DHT22;3081;50.584;7.032;2023-02-26T08:24:48;6.70;99.90
6102;DHT22;3081;50.584;7.032;2023-02-26T08:27:15;7.10;99.90
6102;DHT22;3081;50.584;7.032;2023-02-26T08:29:42;6.90;99.90
6102;DHT22;3081;50.584;7.032;2023-02-26T08:32:11;6.30;99.90
6102;DHT22;3081;50.584;7.032;2023-02-26T08:34:37;5.70;99.90
6102;DHT22;3081;50.584;7.032;2023-02-26T08:37:04;5.30;99.90
6102;DHT22;3081;50.584;7.032;2023-02-26T08:39:35;5.00;99.90
6102;DHT22;3081;50.584;7.032;2023-02-26T08:42:03;5.20;99.90
6102;DHT22;3081;50.584;7.032;2023-02-26T08:44:31;5.80;99.90
6102;DHT22;3081;50.584;7.032;2023-02-26T08:46:58;7.00;99.90
6102;DHT22;3081;50.584;7.032;2023-02-26T08:49:25;8.50;99.90
6102;DHT22;3081;50.584;7.032;2023-02-26T08:51:51;9.70;99.90
6102;DHT22;3081;50.584;7.032;2023-02-26T08:54:19;10.50;97.10
6102;DHT22;3081;50.584;7.032;2023-02-26T08:56:47;10.80;95.70
6102;DHT22;3081;50.584;7.032;2023-02-26T08:59:14;11.20;94.40
6102;DHT22;3081;50.584;7.032;2023-02-26T09:01:41;10.70;92.50
6102;DHT22;3081;50.584;7.032;2023-02-26T09:04:08;10.50;92.70
6102;DHT22;3081;50.584;7.032;2023-02-26T09:06:35;10.70;92.30
6102;DHT22;3081;50.584;7.032;2023-02-26T09:09:02;11.10;91.90
6102;DHT22;3081;50.584;7.032;2023-02-26T09:11:29;11.40;90.50
6102;DHT22;3081;50.584;7.032;2023-02-26T09:13:58;11.50;88.80
6102;DHT22;3081;50.584;7.032;2023-02-26T09:16:26;11.50;87.00
6102;DHT22;3081;50.584;7.032;2023-02-26T09:18:54;11.50;87.70
6102;DHT22;3081;50.584;7.032;2023-02-26T09:21:21;11.90;85.20
6102;DHT22;3081;50.584;7.032;2023-02-26T09:23:47;11.70;84.00
6102;DHT22;3081;50.584;7.032;2023-02-26T09:26:14;10.90;81.90
6102;DHT22;3081;50.584;7.032;2023-02-26T09:28:41;10.00;85.10
6102;DHT22;3081;50.584;7.032;2023-02-26T09:31:10;9.40;85.30
6102;DHT22;3081;50.584;7.032;2023-02-26T09:33:37;8.50;86.50
6102;DHT22;3081;50.584;7.032;2023-02-26T09:36:04;7.80;88.90
6102;DHT22;3081;50.584;7.032;2023-02-26T09:38:31;7.50;90.30
6102;DHT22;3081;50.584;7.032;2023-02-26T09:41:02;7.40;90.60
6102;DHT22;3081;50.584;7.032;2023-02-26T09:46:29;8.10;90.20
6102;DHT22;3081;50.584;7.032;2023-02-26T09:49:04;7.90;88.30
6102;DHT22;3081;50.584;7.032;2023-02-26T09:51:33;7.40;89.40
6102;DHT22;3081;50.584;7.032;2023-02-26T09:54:06;7.30;90.50
6102;DHT22;3081;50.584;7.032;2023-02-26T09:56:34;7.80;90.40
6102;DHT22;3081;50.584;7.032;2023-02-26T09:59:02;7.70;89.80
6102;DHT22;3081;50.584;7.032;2023-02-26T10:01:35;7.20;90.30
6102;DHT22;3081;50.584;7.032;2023-02-26T10:04:13;6.70;91.20
6102;DHT22;3081;50.584;7.032;2023-02-26T10:06:56;6.50;91.90
6102;DHT22;3081;50.584;7.032;2023-02-26T10:09:34;6.20;91.50
6102;DHT22;3081;50.584;7.032;2023-02-26T10:12:06;5.80;91.90
6102;DHT22;3081;50.584;7.032;2023-02-26T10:14:40;5.70;92.60
6102;DHT22;3081;50.584;7.032;2023-02-26T10:17:17;5.70;92.80
6102;DHT22;3081;50.584;7.032;2023-02-26T10:19:48;5.60;92.90
6102;DHT22;3081;50.584;7.032;2023-02-26T10:22:24;5.70;93.20
6102;DHT22;3081;50.584;7.032;2023-02-26T10:24:57;5.70;93.20
6102;DHT22;3081;50.584;7.032;2023-02-26T10:27:41;5.70;93.30
6102;DHT22;3081;50.584;7.032;2023-02-26T10:30:18;5.70;92.90
6102;DHT22;3081;50.584;7.032;2023-02-26T10:32:57;5.40;92.90
6102;DHT22;3081;50.584;7.032;2023-02-26T10:35:28;5.20;93.20
6102;DHT22;3081;50.584;7.032;2023-02-26T10:37:59;5.10;93.50
6102;DHT22;3081;50.584;7.032;2023-02-26T10:40:30;5.30;93.60
6102;DHT22;3081;50.584;7.032;2023-02-26T10:43:00;5.40;93.70
6102;DHT22;3081;50.584;7.032;2023-02-26T10:45:40;5.90;93.90
6102;DHT22;3081;50.584;7.032;2023-02-26T10:48:26;6.40;93.40
6102;DHT22;3081;50.584;7.032;2023-02-26T10:50:56;6.80;92.70
6102;DHT22;3081;50.584;7.032;2023-02-26T10:53:25;7.00;91.20
6102;DHT22;3081;50.584;7.032;2023-02-26T10:55:58;6.80;89.30
6102;DHT22;3081;50.584;7.032;2023-02-26T10:58:27;6.50;88.10
6102;DHT22;3081;50.584;7.032;2023-02-26T11:00:55;6.20;86.80
6102;DHT22;3081;50.584;7.032;2023-02-26T11:03:29;5.80;86.40
6102;DHT22;3081;50.584;7.032;2023-02-26T11:05:57;5.60;88.10
6102;DHT22;3081;50.584;7.032;2023-02-26T11:08:26;5.40;88.50
6102;DHT22;3081;50.584;7.032;2023-02-26T11:10:55;5.20;88.50
6102;DHT22;3081;50.584;7.032;2023-02-26T11:13:24;5.10;89.60
6102;DHT22;3081;50.584;7.032;2023-02-26T11:15:54;5.00;88.60
6102;DHT22;3081;50.584;7.032;2023-02-26T11:18:26;4.90;88.50
6102;DHT22;3081;50.584;7.032;2023-02-26T11:20:55;4.90;89.20
6102;DHT22;3081;50.584;7.032;2023-02-26T11:23:25;5.00;90.00
6102;DHT22;3081;50.584;7.032;2023-02-26T11:25:57;5.10;88.80
6102;DHT22;3081;50.584;7.032;2023-02-26T11:28:31;5.00;88.70
6102;DHT22;3081;50.584;7.032;2023-02-26T11:31:00;4.90;89.00
6102;DHT22;3081;50.584;7.032;2023-02-26T11:33:36;4.90;89.30
6102;DHT22;3081;50.584;7.032;2023-02-26T11:36:07;4.80;88.60
6102;DHT22;3081;50.584;7.032;2023-02-26T11:38:35;4.80;86.40
6102;DHT22;3081;50.584;7.032;2023-02-26T11:41:04;4.60;86.10
6102;DHT22;3081;50.584;7.032;2023-02-26T11:43:36;4.60;86.20
6102;DHT22;3081;50.584;7.032;2023-02-26T11:46:06;4.60;86.90
6102;DHT22;3081;50.584;7.032;2023-02-26T11:48:40;4.70;87.80
6102;DHT22;3081;50.584;7.032;2023-02-26T11:51:13;4.90;88.10
6102;DHT22;3081;50.584;7.032;2023-02-26T11:53:46;5.30;87.60
6102;DHT22;3081;50.584;7.032;2023-02-26T11:56:21;5.60;85.20
6102;DHT22;3081;50.584;7.032;2023-02-26T11:58:51;5.80;84.50
6102;DHT22;3081;50.584;7.032;2023-02-26T12:01:20;5.90;84.50
6102;DHT22;3081;50.584;7.032;2023-02-26T12:03:50;6.00;84.50
6102;DHT22;3081;50.584;7.032;2023-02-26T12:06:20;6.00;83.80
6102;DHT22;3081;50.584;7.032;2023-02-26T12:08:49;5.90;83.50
6102;DHT22;3081;50.584;7.032;2023-02-26T12:11:41;5.80;84.30
6102;DHT22;3081;50.584;7.032;2023-02-26T12:14:32;5.90;87.20
6102;DHT22;3081;50.584;7.032;2023-02-26T12:17:14;5.70;85.50
6102;DHT22;3081;50.584;7.032;2023-02-26T12:19:49;5.40;87.40
6102;DHT22;3081;50.584;7.032;2023-02-26T12:22:33;5.60;88.70
6102;DHT22;3081;50.584;7.032;2023-02-26T12:25:26;5.90;88.90
6102;DHT22;3081;50.584;7.032;2023-02-26T12:28:22;6.00;87.20
6102;DHT22;3081;50.584;7.032;2023-02-26T12:31:07;5.90;87.40
6102;DHT22;3081;50.584;7.032;2023-02-26T12:33:47;5.70;86.30
6102;DHT22;3081;50.584;7.032;2023-02-26T12:36:29;5.50;86.10
6102;DHT22;3081;50.584;7.032;2023-02-26T12:39:07;5.40;86.50
6102;DHT22;3081;50.584;7.032;2023-02-26T12:41:55;5.30;86.90
6102;DHT22;3081;50.584;7.032;2023-02-26T12:44:38;5.20;85.80
6102;DHT22;3081;50.584;7.032;2023-02-26T12:47:22;5.10;85.50
6102;DHT22;3081;50.584;7.032;2023-02-26T12:50:02;4.90;85.30
6102;DHT22;3081;50.584;7.032;2023-02-26T12:52:48;5.00;85.80
6102;DHT22;3081;50.584;7.032;2023-02-26T12:55:26;5.10;86.20
6102;DHT22;3081;50.584;7.032;2023-02-26T13:01:12;5.60;86.20
6102;DHT22;3081;50.584;7.032;2023-02-26T13:04:00;5.80;86.30
6102;DHT22;3081;50.584;7.032;2023-02-26T13:06:50;6.10;85.70
6102;DHT22;3081;50.584;7.032;2023-02-26T13:09:28;6.30;84.20
6102;DHT22;3081;50.584;7.032;2023-02-26T13:12:10;6.30;83.80
6102;DHT22;3081;50.584;7.032;2023-02-26T13:14:48;6.20;84.70
6102;DHT22;3081;50.584;7.032;2023-02-26T13:17:26;6.10;84.50
6102;DHT22;3081;50.584;7.032;2023-02-26T13:19:57;6.10;85.30
6102;DHT22;3081;50.584;7.032;2023-02-26T13:22:28;6.20;84.70
6102;DHT22;3081;50.584;7.032;2023-02-26T13:25:00;6.50;84.30
6102;DHT22;3081;50.584;7.032;2023-02-26T13:27:32;6.80;84.20
6102;DHT22;3081;50.584;7.032;2023-02-26T13:30:17;6.90;82.00
6102;DHT22;3081;50.584;7.032;2023-02-26T13:32:47;6.70;82.00
6102;DHT22;3081;50.584;7.032;2023-02-26T13:35:20;6.50;82.20
6102;DHT22;3081;50.584;7.032;2023-02-26T13:37:50;6.30;82.80
6102;DHT22;3081;50.584;7.032;2023-02-26T13:40:41;6.30;83.90
6102;DHT22;3081;50.584;7.032;2023-02-26T13:43:18;6.40;83.80
6102;DHT22;3081;50.584;7.032;2023-02-26T13:45:52;6.60;83.60
6102;DHT22;3081;50.584;7.032;2023-02-26T13:48:33;6.60;81.20
6102;DHT22;3081;50.584;7.032;2023-02-26T13:51:06;6.50;82.20
6102;DHT22;3081;50.584;7.032;2023-02-26T13:53:51;6.40;83.20
6102;DHT22;3081;50.584;7.032;2023-02-26T13:56:41;6.40;83.60
6102;DHT22;3081;50.584;7.032;2023-02-26T13:59:35;6.30;83.10
6102;DHT22;3081;50.584;7.032;2023-02-26T14:02:30;6.20;82.80
6102;DHT22;3081;50.584;7.032;2023-02-26T14:05:00;6.20;82.90
6102;DHT22;3081;50.584;7.032;2023-02-26T14:07:46;6.20;82.20
6102;DHT22;3081;50.584;7.032;2023-02-26T14:10:16;6.50;82.90
6102;DHT22;3081;50.584;7.032;2023-02-26T14:13:06;6.60;83.30
6102;DHT22;3081;50.584;7.032;2023-02-26T14:15:48;6.70;81.20
6102;DHT22;3081;50.584;7.032;2023-02-26T14:18:24;6.60;81.10
6102;DHT22;3081;50.584;7.032;2023-02-26T14:21:36;6.70;80.60
6102;DHT22;3081;50.584;7.032;2023-02-26T14:24:10;7.00;79.50
6102;DHT22;3081;50.584;7.032;2023-02-26T14:26:44;7.10;79.70
6102;DHT22;3081;50.584;7.032;2023-02-26T14:29:16;7.20;80.70
6102;DHT22;3081;50.584;7.032;2023-02-26T14:31:53;8.30;80.90
6102;DHT22;3081;50.584;7.032;2023-02-26T14:34:22;9.50;77.30
6102;DHT22;3081;50.584;7.032;2023-02-26T14:36:52;9.40;75.30
6102;DHT22;3081;50.584;7.032;2023-02-26T14:39:31;9.20;76.00
6102;DHT22;3081;50.584;7.032;2023-02-26T14:42:02;9.30;76.80
6102;DHT22;3081;50.584;7.032;2023-02-26T14:44:36;10.00;75.40
6102;DHT22;3081;50.584;7.032;2023-02-26T14:47:04;10.00;73.50
6102;DHT22;3081;50.584;7.032;2023-02-26T14:49:33;9.60;72.70
6102;DHT22;3081;50.584;7.032;2023-02-26T14:55:15;10.20;73.60
6102;DHT22;3081;50.584;7.032;2023-02-26T14:57:49;13.30;68.00
6102;DHT22;3081;50.584;7.032;2023-02-26T15:00:28;14.30;64.80
6102;DHT22;3081;50.584;7.032;2023-02-26T15:06:23;17.70;56.10
6102;DHT22;3081;50.584;7.032;2023-02-26T15:09:02;19.10;54.10
6102;DHT22;3081;50.584;7.032;2023-02-26T15:14:48;20.40;50.90
6102;DHT22;3081;50.584;7.032;2023-02-26T15:17:30;22.70;46.60
6102;DHT22;3081;50.584;7.032;2023-02-26T15:20:09;24.20;43.90
6102;DHT22;3081;50.584;7.032;2023-02-26T15:22:47;23.30;40.60
6102;DHT22;3081;50.584;7.032;2023-02-26T15:25:25;21.30;41.20
6102;DHT22;3081;50.584;7.032;2023-02-26T15:27:53;18.90;43.10
6102;DHT22;3081;50.584;7.032;2023-02-26T15:30:22;16.70;45.10
6102;DHT22;3081;50.584;7.032;2023-02-26T15:32:56;14.90;47.30
6102;DHT22;3081;50.584;7.032;2023-02-26T15:35:25;13.40;49.90
6102;DHT22;3081;50.584;7.032;2023-02-26T15:37:54;12.30;51.80
6102;DHT22;3081;50.584;7.032;2023-02-26T15:40:22;11.30;53.40
6102;DHT22;3081;50.584;7.032;2023-02-26T15:42:53;10.40;54.90
6102;DHT22;3081;50.584;7.032;2023-02-26T15:45:25;9.50;56.60
6102;DHT22;3081;50.584;7.032;2023-02-26T15:47:56;8.70;57.70
6102;DHT22;3081;50.584;7.032;2023-02-26T15:50:27;8.00;58.80
6102;DHT22;3081;50.584;7.032;2023-02-26T15:52:57;7.60;59.70
6102;DHT22;3081;50.584;7.032;2023-02-26T15:55:25;7.30;60.80
6102;DHT22;3081;50.584;7.032;2023-02-26T15:57:53;7.10;61.90
6102;DHT22;3081;50.584;7.032;2023-02-26T16:00:21;6.90;62.60
6102;DHT22;3081;50.584;7.032;2023-02-26T16:02:51;6.70;63.80
6102;DHT22;3081;50.584;7.032;2023-02-26T16:05:20;6.60;64.90
6102;DHT22;3081;50.584;7.032;2023-02-26T16:07:47;6.60;65.00
6102;DHT22;3081;50.584;7.032;2023-02-26T16:10:17;6.60;65.00
6102;DHT22;3081;50.584;7.032;2023-02-26T16:12:52;6.60;65.40
6102;DHT22;3081;50.584;7.032;2023-02-26T16:15:24;6.50;65.50
6102;DHT22;3081;50.584;7.032;2023-02-26T16:17:54;6.30;65.70
6102;DHT22;3081;50.584;7.032;2023-02-26T16:20:26;6.20;66.20
6102;DHT22;3081;50.584;7.032;2023-02-26T16:22:55;6.00;66.90
6102;DHT22;3081;50.584;7.032;2023-02-26T16:25:27;5.80;67.70
6102;DHT22;3081;50.584;7.032;2023-02-26T16:28:00;5.70;68.60
6102;DHT22;3081;50.584;7.032;2023-02-26T16:30:31;5.70;69.20
6102;DHT22;3081;50.584;7.032;2023-02-26T16:33:00;5.60;69.50
6102;DHT22;3081;50.584;7.032;2023-02-26T16:35:32;5.50;68.90
6102;DHT22;3081;50.584;7.032;2023-02-26T16:38:04;5.30;69.00
6102;DHT22;3081;50.584;7.032;2023-02-26T16:40:33;5.10;69.00
6102;DHT22;3081;50.584;7.032;2023-02-26T16:43:02;4.90;69.50
6102;DHT22;3081;50.584;7.032;2023-02-26T16:45:48;4.70;70.20
6102;DHT22;3081;50.584;7.032;2023-02-26T16:48:18;4.60;70.80
6102;DHT22;3081;50.584;7.032;2023-02-26T16:50:55;4.50;71.20
6102;DHT22;3081;50.584;7.032;2023-02-26T16:53:23;4.30;71.60
6102;DHT22;3081;50.584;7.032;2023-02-26T16:55:55;4.20;72.10